Arkport, New York
Current Conditions -  °F | °C
As of 12:54 AM on Thursday 29 Jan 2015 (Local Time) from KDSV Reporting Station
Clear Clear  
Wind Chill: -9°   Ceiling: Unl
Heat Index:   Visibility: 10mi
Dew Point: -3°   Wind: 8mph
Humidity: 73%   Direction: 130°SE
Pressure: 30.3"   Gusts: NA
Location:  42.39°N, 77.7°W
Report Text: KDSV 290554Z AUTO 13007KT 10SM CLR M16/M19 A3030 RMK AO2 SLP282 T11561194 11111 21161 56006
Loading
Personal Weather Stations






























Interactive Weather Map New forecast layout! Learn more

10-Day Weather Forecast

Advertisements
Track Severe Weather on mobile